Time;durP1;ratioP1;P1;durP2;ratioP2;P2;SDS_P1;SDS_P2;PMS_P1;PMS_P2;Temp;Humidity;BMP_temperature;BMP_pressure;BME280_temperature;BME280_humidity;BME280_pressure;Samples;Min_cycle;Max_cycle;Signal;HPM_P1;HPM_P2
2024/01/20 00:00:25;;;;;;;1.07;1.00;;;1.80;99.90;;;;;;5024526;28;20114;-73
2024/01/20 00:02:51;;;;;;;1.30;1.20;;;1.80;99.90;;;;;;5041747;28;20610;-73
2024/01/20 00:05:16;;;;;;;1.37;0.60;;;1.80;99.90;;;;;;5016433;28;20045;-73
2024/01/20 00:07:42;;;;;;;4.75;2.25;;;1.80;99.90;;;;;;5022044;28;20072;-73
2024/01/20 00:10:10;;;;;;;1.90;0.93;;;1.80;99.90;;;;;;5024583;28;20049;-73
2024/01/20 00:12:37;;;;;;;2.95;2.67;;;1.80;99.90;;;;;;5030384;28;20037;-73
2024/01/20 00:15:04;;;;;;;0.63;0.40;;;1.80;99.90;;;;;;5021304;28;20061;-73
2024/01/20 00:17:30;;;;;;;1.57;1.47;;;1.80;99.90;;;;;;5007147;28;20072;-73
2024/01/20 00:19:55;;;;;;;0.77;0.77;;;1.70;99.90;;;;;;5003815;28;20049;-72
2024/01/20 00:22:21;;;;;;;1.57;1.47;;;1.70;99.90;;;;;;5023745;28;20396;-73
2024/01/20 00:24:46;;;;;;;6.80;2.63;;;1.60;99.90;;;;;;5033271;28;20033;-73
2024/01/20 00:27:12;;;;;;;1.23;0.87;;;1.60;99.90;;;;;;5036892;28;20495;-73
2024/01/20 00:29:38;;;;;;;2.10;1.13;;;1.60;99.90;;;;;;5041477;28;20267;-73
2024/01/20 00:32:04;;;;;;;1.70;1.45;;;1.60;99.90;;;;;;5023800;28;20036;-73
2024/01/20 00:34:29;;;;;;;1.67;1.17;;;1.60;99.90;;;;;;5041181;28;20112;-73
2024/01/20 00:36:55;;;;;;;2.03;1.13;;;1.60;99.90;;;;;;5023437;28;20180;-73
2024/01/20 00:39:20;;;;;;;2.97;1.47;;;1.60;99.90;;;;;;5033801;28;20448;-73
2024/01/20 00:41:46;;;;;;;1.40;0.90;;;1.50;99.90;;;;;;5039825;28;20487;-73
2024/01/20 00:44:11;;;;;;;2.67;0.93;;;1.50;99.90;;;;;;5040945;28;20048;-73
2024/01/20 00:46:37;;;;;;;1.80;1.53;;;1.60;99.90;;;;;;5023079;28;20037;-72
2024/01/20 00:49:02;;;;;;;1.20;1.10;;;1.60;99.90;;;;;;5021180;28;20080;-73
2024/01/20 00:51:28;;;;;;;11.53;2.70;;;1.60;99.90;;;;;;5004374;28;20458;-73
2024/01/20 00:53:54;;;;;;;0.97;0.87;;;1.50;99.90;;;;;;5032187;28;20052;-73
2024/01/20 00:56:19;;;;;;;1.20;1.10;;;1.50;99.90;;;;;;5022968;28;20386;-73
2024/01/20 00:58:45;;;;;;;7.77;2.43;;;1.50;99.90;;;;;;5011249;28;20068;-73
2024/01/20 01:01:10;;;;;;;2.83;1.70;;;1.50;99.90;;;;;;5023421;28;20102;-73
2024/01/20 01:03:36;;;;;;;1.90;1.47;;;1.50;99.90;;;;;;5023096;28;20049;-73
2024/01/20 01:06:02;;;;;;;2.07;1.17;;;1.50;99.90;;;;;;5023683;28;20191;-73
2024/01/20 01:08:28;;;;;;;0.90;0.90;;;1.50;99.90;;;;;;5041139;28;20076;-73
2024/01/20 01:10:55;;;;;;;1.03;1.00;;;1.50;99.90;;;;;;5039163;28;20416;-73
2024/01/20 01:13:21;;;;;;;0.63;0.60;;;1.50;99.90;;;;;;5011364;28;20053;-73
2024/01/20 01:15:46;;;;;;;1.23;1.23;;;1.50;99.90;;;;;;5023934;28;20048;-73
2024/01/20 01:18:12;;;;;;;7.73;2.20;;;1.50;99.90;;;;;;5021186;28;20044;-73
2024/01/20 01:20:37;;;;;;;0.43;0.43;;;1.50;99.90;;;;;;5008636;28;20119;-73
2024/01/20 01:23:03;;;;;;;1.33;1.23;;;1.50;99.90;;;;;;5003070;28;20195;-73
2024/01/20 01:25:29;;;;;;;2.53;1.50;;;1.50;99.90;;;;;;5023524;28;20053;-73
2024/01/20 01:27:54;;;;;;;2.37;1.27;;;1.50;99.90;;;;;;5014618;28;20068;-73
2024/01/20 01:30:20;;;;;;;1.17;1.07;;;1.50;99.90;;;;;;5039453;28;20049;-74
2024/01/20 01:32:45;;;;;;;3.03;1.33;;;1.40;99.90;;;;;;5039546;28;20041;-73
2024/01/20 01:35:11;;;;;;;1.40;1.30;;;1.50;99.90;;;;;;5040014;28;20399;-73
2024/01/20 01:37:37;;;;;;;3.40;1.63;;;1.40;99.90;;;;;;5044599;28;20166;-73
2024/01/20 01:40:02;;;;;;;2.53;1.53;;;1.40;99.90;;;;;;5043702;28;20445;-73
2024/01/20 01:42:28;;;;;;;1.60;0.97;;;1.40;99.90;;;;;;5026144;28;20033;-73
2024/01/20 01:44:54;;;;;;;1.33;1.23;;;1.40;99.90;;;;;;5035540;28;20127;-73
2024/01/20 01:47:20;;;;;;;2.27;1.70;;;1.40;99.90;;;;;;5038731;28;20459;-74
2024/01/20 01:49:46;;;;;;;1.63;1.53;;;1.40;99.90;;;;;;5038113;28;20051;-73
2024/01/20 01:52:13;;;;;;;1.90;1.20;;;1.40;99.90;;;;;;5026200;28;20120;-74
2024/01/20 01:54:39;;;;;;;2.07;1.07;;;1.40;99.90;;;;;;5025953;28;20046;-73
2024/01/20 01:57:05;;;;;;;0.80;0.80;;;1.40;99.90;;;;;;5016322;28;20050;-73
2024/01/20 01:59:33;;;;;;;2.87;1.03;;;1.40;99.90;;;;;;5025867;28;20049;-73
2024/01/20 02:01:58;;;;;;;1.17;1.07;;;1.50;99.90;;;;;;5025574;28;20080;-73
2024/01/20 02:04:24;;;;;;;1.33;1.13;;;1.50;99.90;;;;;;5022581;28;20061;-73
2024/01/20 02:06:50;;;;;;;1.80;1.70;;;1.50;99.90;;;;;;5025645;28;20092;-73
2024/01/20 02:09:17;;;;;;;1.20;1.20;;;1.50;99.90;;;;;;5031163;28;20037;-74
2024/01/20 02:11:43;;;;;;;2.10;1.70;;;1.50;99.90;;;;;;4990123;28;20045;-74
2024/01/20 02:14:09;;;;;;;3.03;2.63;;;1.60;99.90;;;;;;5009204;28;20123;-74
2024/01/20 02:16:35;;;;;;;1.57;1.47;;;1.60;99.90;;;;;;5009292;28;20046;-73
2024/01/20 02:19:04;;;;;;;4.90;2.60;;;1.60;99.90;;;;;;5024038;28;20049;-74
2024/01/20 02:21:30;;;;;;;3.50;1.47;;;1.60;99.90;;;;;;5017326;28;20079;-74
2024/01/20 02:23:57;;;;;;;1.53;0.93;;;1.60;99.90;;;;;;5024166;28;20068;-74
2024/01/20 02:26:23;;;;;;;2.57;1.93;;;1.60;99.90;;;;;;5028612;28;20102;-74
2024/01/20 02:28:49;;;;;;;6.97;2.63;;;1.60;99.90;;;;;;5031990;28;20037;-74
2024/01/20 02:31:14;;;;;;;2.60;1.27;;;1.50;99.90;;;;;;5025283;28;20045;-74
2024/01/20 02:33:40;;;;;;;1.37;1.27;;;1.50;99.90;;;;;;5024577;28;20049;-74
2024/01/20 02:36:05;;;;;;;1.67;1.40;;;1.50;99.90;;;;;;5021283;28;20582;-74
2024/01/20 02:38:31;;;;;;;3.23;0.83;;;1.40;99.90;;;;;;5015584;28;20427;-74
2024/01/20 02:40:56;;;;;;;0.57;0.57;;;1.40;99.90;;;;;;5004467;28;20140;-74
2024/01/20 02:43:22;;;;;;;1.30;1.20;;;1.40;99.90;;;;;;5015647;28;20206;-74
2024/01/20 02:45:51;;;;;;;7.73;2.83;;;1.40;99.90;;;;;;5024313;28;20049;-74
2024/01/20 02:48:16;;;;;;;2.67;1.80;;;1.40;99.90;;;;;;5024311;28;20312;-74
2024/01/20 02:50:42;;;;;;;1.13;1.03;;;1.40;99.90;;;;;;5024427;28;20464;-74
2024/01/20 02:53:08;;;;;;;3.10;2.47;;;1.40;99.90;;;;;;5024474;28;20048;-74
2024/01/20 02:55:33;;;;;;;1.93;1.80;;;1.40;99.90;;;;;;4996208;28;20077;-73
2024/01/20 02:57:59;;;;;;;2.43;2.07;;;1.40;99.90;;;;;;5003871;28;20038;-74
2024/01/20 03:00:25;;;;;;;1.13;0.90;;;1.40;99.90;;;;;;5022888;28;20056;-74
2024/01/20 03:02:50;;;;;;;0.80;0.80;;;1.40;99.90;;;;;;5033107;28;20039;-74
2024/01/20 03:05:16;;;;;;;1.53;1.30;;;1.40;99.90;;;;;;5022769;28;20041;-74
2024/01/20 03:07:42;;;;;;;1.97;1.87;;;1.30;99.90;;;;;;5015127;28;20045;-74
2024/01/20 03:10:09;;;;;;;12.77;1.93;;;1.40;99.90;;;;;;5027337;28;20145;-74
2024/01/20 03:12:34;;;;;;;11.87;2.17;;;1.30;99.90;;;;;;5018282;28;20496;-74
2024/01/20 03:15:00;;;;;;;1.50;1.40;;;1.30;99.90;;;;;;5011574;28;20123;-74
2024/01/20 03:17:26;;;;;;;2.10;0.97;;;1.30;99.90;;;;;;5021581;28;20088;-74
2024/01/20 03:19:51;;;;;;;3.73;1.57;;;1.30;99.90;;;;;;5016248;28;20106;-74
2024/01/20 03:22:17;;;;;;;1.97;1.37;;;1.30;99.90;;;;;;5004283;28;20462;-74
2024/01/20 03:24:42;;;;;;;1.43;1.33;;;1.30;99.90;;;;;;5030001;28;20518;-73
2024/01/20 03:27:09;;;;;;;1.23;0.90;;;1.30;99.90;;;;;;5022221;28;20410;-74
2024/01/20 03:29:34;;;;;;;2.93;1.70;;;1.30;99.90;;;;;;5022958;28;20586;-74
2024/01/20 03:32:00;;;;;;;2.83;2.17;;;1.30;99.90;;;;;;5022143;28;20120;-74
2024/01/20 03:34:26;;;;;;;1.30;1.00;;;1.30;99.90;;;;;;4996283;28;20037;-74
2024/01/20 03:36:51;;;;;;;2.77;1.50;;;1.30;99.90;;;;;;5040859;28;20048;-74
2024/01/20 03:39:17;;;;;;;1.60;1.47;;;1.30;99.90;;;;;;5028953;28;20060;-74
2024/01/20 03:41:44;;;;;;;2.30;1.47;;;1.30;99.90;;;;;;5020382;28;20076;-73
2024/01/20 03:44:09;;;;;;;3.07;2.13;;;1.30;99.90;;;;;;4987164;28;21242;-74
2024/01/20 03:46:35;;;;;;;1.97;1.87;;;1.20;99.90;;;;;;5010465;28;20038;-74
2024/01/20 03:49:00;;;;;;;3.37;3.07;;;1.20;99.90;;;;;;5022507;28;20045;-74
2024/01/20 03:51:26;;;;;;;1.67;1.57;;;1.20;99.90;;;;;;5040940;28;20086;-74
2024/01/20 03:53:53;;;;;;;1.87;1.77;;;1.20;99.90;;;;;;5022978;28;20084;-74
2024/01/20 03:56:19;;;;;;;1.87;1.77;;;1.20;99.90;;;;;;5021840;28;20154;-74
2024/01/20 03:58:44;;;;;;;4.23;2.30;;;1.20;99.90;;;;;;5022063;28;20063;-74
2024/01/20 04:01:10;;;;;;;4.17;3.47;;;1.10;99.90;;;;;;4996726;28;20073;-74
2024/01/20 04:03:36;;;;;;;2.83;2.73;;;1.10;99.90;;;;;;5026447;28;20040;-74
2024/01/20 04:06:03;;;;;;;2.27;2.17;;;1.10;99.90;;;;;;5027217;28;20133;-74
2024/01/20 04:08:29;;;;;;;2.93;2.73;;;1.10;99.90;;;;;;4986642;28;20048;-74
2024/01/20 04:10:54;;;;;;;4.00;2.60;;;1.10;99.90;;;;;;5036768;28;20037;-74
2024/01/20 04:13:20;;;;;;;1.73;1.63;;;1.10;99.90;;;;;;5017412;28;20053;-74
2024/01/20 04:15:46;;;;;;;2.33;1.90;;;1.20;99.90;;;;;;5003501;28;20073;-74
2024/01/20 04:18:11;;;;;;;2.30;2.07;;;1.20;99.90;;;;;;5000626;28;20045;-74
2024/01/20 04:20:37;;;;;;;3.23;3.03;;;1.20;99.90;;;;;;5009637;28;20050;-74
2024/01/20 04:23:03;;;;;;;2.40;2.03;;;1.20;99.90;;;;;;5016701;28;20125;-74
2024/01/20 04:25:29;;;;;;;5.10;2.80;;;1.20;99.90;;;;;;5002552;28;20072;-73
2024/01/20 04:27:54;;;;;;;4.83;3.07;;;1.20;99.90;;;;;;5012297;28;20116;-74
2024/01/20 04:30:20;;;;;;;2.70;2.60;;;1.20;99.90;;;;;;4999451;28;20049;-74
2024/01/20 04:32:46;;;;;;;3.17;2.97;;;1.10;99.90;;;;;;5011925;28;20427;-74
2024/01/20 04:35:11;;;;;;;2.87;2.60;;;1.10;99.90;;;;;;5017449;28;20476;-74
2024/01/20 04:37:38;;;;;;;3.57;3.07;;;1.10;99.90;;;;;;5018913;28;20499;-74
2024/01/20 04:40:04;;;;;;;3.47;3.07;;;1.10;99.90;;;;;;5018614;28;20049;-73
2024/01/20 04:42:30;;;;;;;2.67;2.47;;;1.00;99.90;;;;;;5018016;28;20500;-74
2024/01/20 04:44:56;;;;;;;2.83;2.53;;;1.00;99.90;;;;;;5014160;28;20041;-74
2024/01/20 04:47:22;;;;;;;2.53;2.30;;;1.00;99.90;;;;;;4999750;28;20506;-74
2024/01/20 04:49:51;;;;;;;6.03;2.77;;;1.00;99.90;;;;;;4983329;28;20037;-74
2024/01/20 04:52:18;;;;;;;2.53;2.20;;;0.90;99.90;;;;;;4999457;28;20054;-74
2024/01/20 04:54:43;;;;;;;4.57;3.47;;;0.90;99.90;;;;;;5004148;28;20554;-74
2024/01/20 04:57:09;;;;;;;6.10;4.27;;;0.90;99.90;;;;;;4998389;28;20391;-74
2024/01/20 04:59:34;;;;;;;3.80;3.50;;;0.90;99.90;;;;;;5017960;28;20586;-74
2024/01/20 05:02:00;;;;;;;4.03;3.83;;;0.80;99.90;;;;;;5011688;28;20045;-74
2024/01/20 05:04:25;;;;;;;4.17;2.73;;;0.80;99.90;;;;;;4989102;28;20072;-74
2024/01/20 05:06:51;;;;;;;11.70;3.20;;;0.80;99.90;;;;;;5000581;28;20077;-74
2024/01/20 05:09:16;;;;;;;3.57;3.30;;;0.80;99.90;;;;;;5001681;28;20053;-73
2024/01/20 05:11:42;;;;;;;5.30;4.60;;;0.80;99.90;;;;;;5013254;28;20254;-74
2024/01/20 05:14:08;;;;;;;3.90;3.70;;;0.80;99.90;;;;;;5003375;28;20069;-74
2024/01/20 05:16:34;;;;;;;3.73;3.03;;;0.80;99.90;;;;;;5013972;28;20488;-74
2024/01/20 05:18:59;;;;;;;3.70;3.50;;;0.70;99.90;;;;;;5004474;28;20128;-74
2024/01/20 05:21:25;;;;;;;5.30;4.80;;;0.70;99.90;;;;;;5008536;28;20042;-74
2024/01/20 05:23:51;;;;;;;2.53;2.33;;;0.80;99.90;;;;;;5014083;28;20065;-74
2024/01/20 05:26:17;;;;;;;2.67;2.47;;;0.80;99.90;;;;;;5022069;28;20486;-74
2024/01/20 05:28:42;;;;;;;5.30;3.60;;;0.80;99.90;;;;;;5015505;28;20054;-73
2024/01/20 05:31:08;;;;;;;3.20;2.90;;;0.80;99.90;;;;;;5013924;28;20117;-74
2024/01/20 05:33:34;;;;;;;2.93;2.33;;;0.80;99.90;;;;;;5014416;28;20087;-74
2024/01/20 05:35:59;;;;;;;3.47;2.63;;;0.80;99.90;;;;;;5005474;28;20045;-73
2024/01/20 05:38:25;;;;;;;2.97;2.77;;;0.80;99.90;;;;;;5022320;28;20700;-74
2024/01/20 05:40:51;;;;;;;3.63;3.43;;;0.80;99.90;;;;;;5004468;28;20132;-74
2024/01/20 05:43:16;;;;;;;3.30;2.23;;;0.90;99.90;;;;;;5002288;28;20088;-74
2024/01/20 05:45:42;;;;;;;6.30;2.80;;;0.90;99.90;;;;;;5002502;28;20508;-74
2024/01/20 05:48:07;;;;;;;3.80;3.50;;;0.90;99.90;;;;;;5002052;28;20053;-73
2024/01/20 05:50:33;;;;;;;3.00;2.63;;;0.90;99.90;;;;;;5015350;28;20489;-74
2024/01/20 05:52:58;;;;;;;8.17;2.77;;;0.90;99.90;;;;;;5020530;28;20419;-74
2024/01/20 05:55:24;;;;;;;2.40;2.30;;;0.90;99.90;;;;;;5022487;28;20084;-74
2024/01/20 05:57:50;;;;;;;3.27;3.07;;;0.90;99.90;;;;;;5021696;28;20037;-74
2024/01/20 06:00:17;;;;;;;9.10;4.70;;;0.90;99.90;;;;;;5022639;28;20044;-74
2024/01/20 06:02:42;;;;;;;5.03;4.27;;;0.90;99.90;;;;;;5009322;28;20069;-74
2024/01/20 06:05:08;;;;;;;4.13;3.67;;;0.90;99.90;;;;;;5020244;28;20073;-74
2024/01/20 06:07:34;;;;;;;4.50;3.20;;;0.90;99.90;;;;;;5021861;28;20491;-74
2024/01/20 06:09:59;;;;;;;5.00;4.40;;;0.90;99.90;;;;;;5022260;28;20049;-74
2024/01/20 06:12:25;;;;;;;3.90;3.63;;;0.90;99.90;;;;;;5008417;28;20077;-74
2024/01/20 06:14:50;;;;;;;5.37;4.93;;;0.90;99.90;;;;;;5021174;28;20093;-74
2024/01/20 06:17:16;;;;;;;14.83;4.33;;;0.90;99.90;;;;;;5019852;28;20526;-74
2024/01/20 06:19:41;;;;;;;4.90;4.17;;;0.90;99.90;;;;;;5011680;28;20490;-74
2024/01/20 06:22:07;;;;;;;5.27;3.80;;;0.90;99.90;;;;;;5021551;28;20041;-74
2024/01/20 06:24:33;;;;;;;3.33;2.03;;;0.90;99.90;;;;;;5021246;28;20121;-74
2024/01/20 06:26:58;;;;;;;3.30;3.10;;;0.90;99.90;;;;;;5020999;28;20068;-74
2024/01/20 06:29:24;;;;;;;3.47;3.27;;;1.00;99.90;;;;;;5008904;28;20086;-74
2024/01/20 06:31:49;;;;;;;3.37;3.00;;;1.00;99.90;;;;;;5022539;28;20107;-74
2024/01/20 06:34:15;;;;;;;10.40;4.27;;;1.00;99.90;;;;;;5011158;28;20038;-73
2024/01/20 06:36:40;;;;;;;3.20;2.30;;;1.00;99.90;;;;;;5001553;28;20492;-74
2024/01/20 06:39:06;;;;;;;7.27;4.07;;;1.00;99.90;;;;;;5002618;28;20172;-74
2024/01/20 06:41:32;;;;;;;4.30;2.13;;;1.00;99.90;;;;;;5002111;28;20384;-74
2024/01/20 06:43:58;;;;;;;6.37;3.83;;;1.00;99.90;;;;;;5002342;28;20038;-74
2024/01/20 06:46:23;;;;;;;4.27;3.13;;;1.00;99.90;;;;;;5013097;28;20039;-74
2024/01/20 06:48:50;;;;;;;3.83;3.57;;;1.00;99.90;;;;;;5021109;28;20168;-74
2024/01/20 06:51:15;;;;;;;4.73;2.80;;;1.00;99.90;;;;;;5022386;28;20077;-74
2024/01/20 06:53:43;;;;;;;8.83;3.40;;;1.00;99.90;;;;;;5021265;28;20076;-73
2024/01/20 06:56:08;;;;;;;8.10;3.97;;;1.00;99.90;;;;;;5019237;28;20049;-74
2024/01/20 06:58:35;;;;;;;9.63;5.33;;;1.00;99.90;;;;;;5010925;28;20522;-74
2024/01/20 07:01:01;;;;;;;6.13;5.70;;;0.90;99.90;;;;;;5004347;28;20060;-73
2024/01/20 07:03:26;;;;;;;5.97;4.70;;;0.90;99.90;;;;;;5020870;28;20041;-74
2024/01/20 07:05:52;;;;;;;3.10;2.90;;;0.90;99.90;;;;;;5003810;28;20037;-74
2024/01/20 07:08:18;;;;;;;5.73;5.23;;;0.80;99.90;;;;;;5018956;28;20487;-74
2024/01/20 07:10:44;;;;;;;5.00;4.60;;;0.80;99.90;;;;;;5008406;28;20080;-74
2024/01/20 07:13:09;;;;;;;5.10;4.63;;;0.80;99.90;;;;;;5007960;28;20469;-74
2024/01/20 07:15:35;;;;;;;7.60;4.63;;;0.80;99.90;;;;;;5020566;28;20053;-74
2024/01/20 07:18:00;;;;;;;4.67;2.57;;;0.80;99.90;;;;;;5014266;28;20405;-74
2024/01/20 07:20:26;;;;;;;2.43;2.27;;;0.80;99.90;;;;;;5005158;28;20276;-74
2024/01/20 07:22:52;;;;;;;5.73;5.23;;;0.80;99.90;;;;;;5011955;28;20046;-74
2024/01/20 07:25:18;;;;;;;5.07;4.10;;;0.80;99.90;;;;;;5019113;28;20033;-74
2024/01/20 07:27:44;;;;;;;9.20;5.80;;;0.70;99.90;;;;;;5008591;28;20243;-73
2024/01/20 07:30:10;;;;;;;3.70;3.50;;;0.70;99.90;;;;;;5015991;28;20118;-74
2024/01/20 07:32:39;;;;;;;6.50;5.27;;;0.70;99.90;;;;;;5011304;28;20052;-74
2024/01/20 07:35:05;;;;;;;7.17;6.47;;;0.70;99.90;;;;;;5020881;28;20230;-73
2024/01/20 07:37:31;;;;;;;12.57;8.17;;;0.70;99.90;;;;;;5003396;28;20604;-74
2024/01/20 07:39:56;;;;;;;9.47;8.20;;;0.70;99.90;;;;;;5008405;28;20380;-74
2024/01/20 07:42:22;;;;;;;8.43;7.67;;;0.70;99.90;;;;;;5016100;28;20049;-74
2024/01/20 07:44:47;;;;;;;8.17;6.63;;;0.70;99.90;;;;;;5004279;28;20053;-74
2024/01/20 07:47:15;;;;;;;7.50;5.77;;;0.70;99.90;;;;;;5005242;28;20528;-74
2024/01/20 07:49:40;;;;;;;13.33;6.27;;;0.70;99.90;;;;;;5019703;28;20400;-74
2024/01/20 07:52:06;;;;;;;8.90;6.33;;;0.70;99.90;;;;;;5019492;28;20589;-74
2024/01/20 07:54:31;;;;;;;6.73;6.33;;;0.70;99.90;;;;;;5019815;28;20537;-74
2024/01/20 07:56:57;;;;;;;8.53;7.27;;;0.80;99.90;;;;;;5020109;28;20037;-74
2024/01/20 07:59:22;;;;;;;7.00;6.50;;;0.80;99.90;;;;;;5017330;28;20120;-74
2024/01/20 08:01:48;;;;;;;10.30;9.47;;;0.80;99.90;;;;;;5021317;28;20419;-74
2024/01/20 08:04:15;;;;;;;11.37;10.40;;;0.80;99.90;;;;;;5002567;28;20605;-73
2024/01/20 08:06:41;;;;;;;12.60;10.30;;;0.80;99.90;;;;;;5002001;28;20049;-74
2024/01/20 08:09:06;;;;;;;14.27;9.67;;;0.90;99.90;;;;;;5001065;28;20049;-74
2024/01/20 08:11:32;;;;;;;13.40;10.77;;;0.90;99.90;;;;;;5001694;28;20049;-74
2024/01/20 08:13:58;;;;;;;13.93;10.33;;;0.90;99.90;;;;;;5027312;28;20050;-74
2024/01/20 08:16:25;;;;;;;13.47;10.07;;;0.90;99.90;;;;;;5038572;28;20055;-74
2024/01/20 08:18:51;;;;;;;21.70;13.77;;;0.90;99.90;;;;;;5035037;28;20045;-74
2024/01/20 08:21:20;;;;;;;10.23;9.20;;;1.00;99.90;;;;;;5039583;28;20248;-73
2024/01/20 08:23:46;;;;;;;10.00;9.00;;;0.90;99.90;;;;;;5008251;28;20037;-74
2024/01/20 08:26:11;;;;;;;19.33;12.67;;;1.00;99.90;;;;;;5008598;28;20415;-74
2024/01/20 08:28:37;;;;;;;11.67;10.60;;;1.00;99.90;;;;;;5002634;28;20056;-74
2024/01/20 08:31:02;;;;;;;7.77;7.27;;;1.00;99.90;;;;;;5032065;28;20388;-74
2024/01/20 08:33:28;;;;;;;9.63;8.93;;;1.00;99.90;;;;;;5020190;28;20095;-74
2024/01/20 08:35:54;;;;;;;8.90;8.10;;;1.00;99.90;;;;;;5014514;28;20040;-89
2024/01/20 08:38:20;;;;;;;10.60;9.57;;;1.10;99.90;;;;;;4999740;28;20047;-90
2024/01/20 08:40:45;;;;;;;13.20;8.47;;;1.10;99.90;;;;;;4997874;28;20036;-91
2024/01/20 08:43:11;;;;;;;9.77;8.87;;;1.10;99.90;;;;;;4991186;28;20034;-72
2024/01/20 08:45:37;;;;;;;11.37;9.53;;;1.10;99.90;;;;;;5025381;28;20562;-74
2024/01/20 08:48:02;;;;;;;13.80;12.33;;;1.10;99.90;;;;;;5017545;28;20041;-73
2024/01/20 08:50:28;;;;;;;11.53;10.07;;;1.10;99.90;;;;;;5015383;28;20491;-74
2024/01/20 08:52:54;;;;;;;11.13;10.13;;;1.10;99.90;;;;;;5021008;28;20124;-75
2024/01/20 08:55:20;;;;;;;12.43;8.70;;;1.20;99.90;;;;;;5020487;28;20080;-75
2024/01/20 08:57:45;;;;;;;16.80;8.03;;;1.10;99.90;;;;;;5010591;28;20589;-76
2024/01/20 09:00:12;;;;;;;10.67;8.83;;;1.20;99.90;;;;;;4999933;28;20049;-77
2024/01/20 09:02:38;;;;;;;19.20;12.07;;;1.20;99.90;;;;;;5020373;28;20057;-76
2024/01/20 09:05:05;;;;;;;10.57;9.73;;;1.20;99.90;;;;;;5020444;28;20400;-77
2024/01/20 09:07:30;;;;;;;12.03;10.97;;;1.20;99.90;;;;;;5015641;28;20048;-75
2024/01/20 09:09:56;;;;;;;13.47;12.10;;;1.30;99.90;;;;;;5015676;28;20041;-74
2024/01/20 09:12:22;;;;;;;11.93;10.87;;;1.30;99.90;;;;;;5009987;28;20053;-77
2024/01/20 09:14:48;;;;;;;11.30;10.23;;;1.30;99.90;;;;;;5012494;28;20594;-75
2024/01/20 09:17:13;;;;;;;15.67;11.00;;;1.30;99.90;;;;;;5027075;28;20100;-75
2024/01/20 09:19:39;;;;;;;11.43;10.40;;;1.30;99.90;;;;;;5036616;28;20056;-76
2024/01/20 09:22:04;;;;;;;10.07;8.60;;;1.30;99.90;;;;;;5002140;28;20069;-75
2024/01/20 09:24:30;;;;;;;14.77;9.37;;;1.30;99.90;;;;;;5032425;28;20385;-75
2024/01/20 09:26:55;;;;;;;9.53;8.57;;;1.40;99.90;;;;;;5008002;28;20065;-75
2024/01/20 09:29:21;;;;;;;9.07;7.93;;;1.40;99.90;;;;;;5019952;28;20045;-76
2024/01/20 09:31:46;;;;;;;11.27;10.27;;;1.40;99.90;;;;;;5035729;28;20036;-75
2024/01/20 09:34:12;;;;;;;10.23;9.23;;;1.40;99.90;;;;;;5039170;28;20079;-75
2024/01/20 09:36:38;;;;;;;9.83;8.33;;;1.40;99.90;;;;;;5038732;28;20041;-75
2024/01/20 09:39:04;;;;;;;9.47;8.57;;;1.50;99.90;;;;;;5032215;28;20048;-75
2024/01/20 09:41:29;;;;;;;8.23;7.37;;;1.40;99.90;;;;;;5021530;28;20044;-75
2024/01/20 09:43:55;;;;;;;10.33;9.00;;;1.50;99.90;;;;;;5028939;28;20412;-75
2024/01/20 09:46:21;;;;;;;10.40;8.60;;;1.50;99.90;;;;;;5020410;28;20041;-75
2024/01/20 09:48:50;;;;;;;11.27;9.30;;;1.50;99.90;;;;;;5020606;28;20128;-75
2024/01/20 09:51:17;;;;;;;11.30;8.50;;;1.50;99.90;;;;;;5017537;28;20124;-75
2024/01/20 09:53:43;;;;;;;10.40;9.60;;;1.50;99.90;;;;;;4987741;28;20092;-75
2024/01/20 09:56:09;;;;;;;7.43;6.83;;;1.50;99.90;;;;;;4989971;28;20135;-75
2024/01/20 09:58:35;;;;;;;11.03;9.80;;;1.50;99.90;;;;;;5013619;28;20334;-74
2024/01/20 10:01:02;;;;;;;12.83;11.30;;;1.60;99.90;;;;;;5016383;28;20487;-75
2024/01/20 10:03:30;;;;;;;10.37;9.23;;;1.60;99.90;;;;;;4995056;28;20048;-75
2024/01/20 10:05:57;;;;;;;10.70;9.47;;;1.60;99.90;;;;;;5015404;28;20140;-76
2024/01/20 10:08:23;;;;;;;9.60;8.70;;;1.60;99.90;;;;;;4989476;28;20041;-75
2024/01/20 10:10:49;;;;;;;14.77;12.60;;;1.70;99.90;;;;;;5022962;28;20210;-75
2024/01/20 10:13:14;;;;;;;12.47;10.77;;;1.70;99.90;;;;;;5001383;28;20651;-75
2024/01/20 10:15:40;;;;;;;12.13;8.57;;;1.70;99.90;;;;;;4992477;28;20072;-75
2024/01/20 10:18:08;;;;;;;9.73;6.83;;;1.70;99.90;;;;;;5011733;28;20503;-75
2024/01/20 10:20:35;;;;;;;9.30;8.37;;;1.80;99.90;;;;;;5009304;28;20116;-75
2024/01/20 10:23:03;;;;;;;9.07;8.40;;;1.80;99.90;;;;;;5021353;28;20076;-76
2024/01/20 10:25:30;;;;;;;9.00;8.33;;;1.80;99.90;;;;;;5016740;28;20126;-75
2024/01/20 10:27:55;;;;;;;9.70;8.90;;;1.80;99.90;;;;;;5017734;28;20037;-75
2024/01/20 10:30:21;;;;;;;8.27;7.67;;;1.90;99.90;;;;;;5019882;28;20173;-75
2024/01/20 10:32:50;;;;;;;12.13;9.00;;;1.80;99.90;;;;;;5023715;28;20037;-75
2024/01/20 10:35:16;;;;;;;13.27;7.90;;;1.90;99.90;;;;;;5019665;28;20128;-75
2024/01/20 10:37:44;;;;;;;11.40;7.40;;;1.90;99.90;;;;;;5019572;28;20120;-75
2024/01/20 10:40:14;;;;;;;7.07;6.47;;;1.90;99.90;;;;;;5015538;28;20038;-75
2024/01/20 10:42:44;;;;;;;12.20;8.93;;;1.90;99.90;;;;;;5010951;28;20137;-75
2024/01/20 10:45:21;;;;;;;8.43;7.60;;;2.00;99.90;;;;;;5017916;28;20038;-75
2024/01/20 10:48:11;;;;;;;9.38;7.47;;;2.00;99.90;;;;;;5000290;28;20049;-75
2024/01/20 10:50:41;;;;;;;9.60;7.80;;;2.00;99.90;;;;;;5022959;28;20038;-73
2024/01/20 10:53:07;;;;;;;13.03;7.97;;;2.00;99.90;;;;;;5014088;28;20496;-74
2024/01/20 10:55:34;;;;;;;8.95;8.15;;;2.00;99.90;;;;;;4992927;28;20077;-74
2024/01/20 10:58:03;;;;;;;7.47;6.97;;;2.00;99.90;;;;;;5015824;28;20037;-74
2024/01/20 11:00:29;;;;;;;9.40;8.50;;;2.10;99.90;;;;;;5014571;28;20132;-74
2024/01/20 11:02:55;;;;;;;10.17;9.30;;;2.10;99.90;;;;;;5014208;28;20041;-72
2024/01/20 11:05:22;;;;;;;9.33;8.37;;;2.00;99.90;;;;;;5011751;28;20042;-72
2024/01/20 11:07:58;;;;;;;16.40;7.73;;;2.10;99.90;;;;;;5009153;28;20410;-70
2024/01/20 11:10:24;;;;;;;8.73;6.67;;;2.10;99.90;;;;;;4993130;28;20050;-73
2024/01/20 11:13:07;;;;;;;8.63;7.57;;;2.10;99.90;;;;;;5010168;28;20091;-73
2024/01/20 11:15:33;;;;;;;8.98;8.10;;;2.10;99.90;;;;;;5015252;28;20792;-72
2024/01/20 11:18:00;;;;;;;11.57;7.83;;;2.10;99.90;;;;;;5015396;28;20046;-72
2024/01/20 11:20:27;;;;;;;23.13;8.70;;;2.10;99.90;;;;;;5012364;28;20137;-71
2024/01/20 11:22:53;;;;;;;9.73;8.83;;;2.10;99.90;;;;;;5016334;28;20049;-72
2024/01/20 11:25:19;;;;;;;11.03;8.67;;;2.10;99.90;;;;;;5010048;28;20041;-74
2024/01/20 11:27:58;;;;;;;8.73;7.40;;;2.20;99.90;;;;;;5011092;28;20257;-73
2024/01/20 11:30:31;;;;;;;10.20;9.30;;;2.20;99.90;;;;;;5011895;28;20076;-73
2024/01/20 11:32:57;;;;;;;14.20;7.83;;;2.20;99.90;;;;;;5015051;28;20084;-74
2024/01/20 11:35:24;;;;;;;18.63;11.07;;;2.20;99.90;;;;;;5017667;28;20042;-72
2024/01/20 11:37:50;;;;;;;10.68;9.55;;;2.20;99.90;;;;;;5018411;28;20544;-73
2024/01/20 11:40:15;;;;;;;10.63;8.83;;;2.20;99.90;;;;;;5016152;28;20060;-72
2024/01/20 11:42:41;;;;;;;8.30;7.60;;;2.20;99.90;;;;;;5015093;28;20454;-72
2024/01/20 11:45:07;;;;;;;15.50;11.80;;;2.20;99.90;;;;;;4993890;28;20455;-73
2024/01/20 11:47:33;;;;;;;22.48;9.52;;;2.20;99.90;;;;;;5020515;28;20482;-74
2024/01/20 11:49:59;;;;;;;14.40;8.87;;;2.30;99.90;;;;;;5014489;28;20483;-73
2024/01/20 11:52:25;;;;;;;8.87;8.07;;;2.30;99.90;;;;;;5019731;28;20033;-72
2024/01/20 11:54:52;;;;;;;10.85;9.88;;;2.30;99.90;;;;;;5003401;28;20042;-72
2024/01/20 11:57:26;;;;;;;6.90;6.40;;;2.40;99.90;;;;;;5013656;28;20096;-73
2024/01/20 11:59:55;;;;;;;11.97;8.37;;;2.30;99.90;;;;;;5013105;28;20539;-74
2024/01/20 12:02:21;;;;;;;19.60;10.57;;;2.40;99.90;;;;;;4988421;28;20041;-74
2024/01/20 12:04:48;;;;;;;11.63;10.68;;;2.40;99.90;;;;;;4991944;28;20149;-73
2024/01/20 12:07:13;;;;;;;9.13;8.07;;;2.40;99.90;;;;;;5010468;28;20072;-74
2024/01/20 12:09:47;;;;;;;16.00;11.00;;;2.40;99.90;;;;;;5016976;28;20543;-74
2024/01/20 12:12:13;;;;;;;12.77;10.57;;;2.40;99.90;;;;;;4998424;28;20067;-73
2024/01/20 12:14:43;;;;;;;9.13;8.30;;;2.40;99.90;;;;;;5015407;28;20052;-74
2024/01/20 12:17:10;;;;;;;11.40;8.00;;;2.40;99.90;;;;;;5024763;28;20039;-74
2024/01/20 12:19:39;;;;;;;13.50;12.10;;;2.40;99.90;;;;;;5013206;28;20406;-74
2024/01/20 12:22:06;;;;;;;12.68;10.48;;;2.40;99.90;;;;;;5006235;28;20091;-74
2024/01/20 12:24:32;;;;;;;12.80;9.07;;;2.40;99.90;;;;;;5005270;28;20341;-74
2024/01/20 12:26:59;;;;;;;12.20;9.20;;;2.40;99.90;;;;;;4999752;28;20615;-74
2024/01/20 12:29:25;;;;;;;10.30;7.43;;;2.40;99.90;;;;;;4988360;28;20432;-74
2024/01/20 12:31:50;;;;;;;13.40;8.65;;;2.40;99.90;;;;;;5000836;28;20175;-74
2024/01/20 12:34:16;;;;;;;9.10;7.40;;;2.40;99.90;;;;;;5001939;28;20597;-74
2024/01/20 12:36:42;;;;;;;10.90;7.75;;;2.50;99.90;;;;;;5004565;28;20033;-73
2024/01/20 12:39:08;;;;;;;13.82;8.30;;;2.40;99.90;;;;;;5006015;28;20559;-73
2024/01/20 12:41:34;;;;;;;8.90;5.70;;;2.50;99.90;;;;;;5021372;28;20036;-74
2024/01/20 12:43:59;;;;;;;8.43;7.67;;;2.40;99.90;;;;;;5022122;28;20060;-74
2024/01/20 12:46:25;;;;;;;7.97;7.05;;;2.40;99.90;;;;;;5022212;28;20123;-74